createdAt,value
2019-03-24T00:00:57.534Z,99242.20
2019-03-24T00:03:26.024Z,99244.48
2019-03-24T00:05:54.547Z,99246.02
2019-03-24T00:08:24.102Z,99240.91
2019-03-24T00:10:52.608Z,99244.94
2019-03-24T00:13:21.105Z,99244.36
2019-03-24T00:15:49.623Z,99243.21
2019-03-24T00:18:18.108Z,99247.42
2019-03-24T00:20:46.863Z,99244.78
2019-03-24T00:23:15.346Z,99243.33
2019-03-24T00:25:43.835Z,99245.55
2019-03-24T00:28:12.353Z,99250.19
2019-03-24T00:30:40.841Z,99251.61
2019-03-24T00:33:09.344Z,99252.94
2019-03-24T00:35:39.158Z,99258.84
2019-03-24T00:38:07.672Z,99257.86
2019-03-24T00:40:36.180Z,99268.11
2019-03-24T00:43:04.922Z,99267.50
2019-03-24T00:45:37.010Z,99264.39
2019-03-24T00:48:03.679Z,99263.93
2019-03-24T00:50:32.165Z,99266.63
2019-03-24T00:53:00.713Z,99275.19
2019-03-24T00:55:29.200Z,99262.24
2019-03-24T00:57:57.851Z,99268.09
2019-03-24T01:00:43.928Z,99279.87
2019-03-24T01:03:12.485Z,99277.87
2019-03-24T01:05:41.247Z,99274.33
2019-03-24T01:08:09.964Z,99281.65
2019-03-24T01:10:38.596Z,99273.15
2019-03-24T01:13:07.147Z,99275.33
2019-03-24T01:15:35.729Z,99287.72
2019-03-24T01:18:04.456Z,99291.23
2019-03-24T01:20:32.973Z,99289.23
2019-03-24T01:23:01.465Z,99298.50
2019-03-24T01:25:29.965Z,99287.72
2019-03-24T01:27:58.444Z,99296.36
2019-03-24T01:30:27.035Z,99287.05
2019-03-24T01:32:55.549Z,99296.81
2019-03-24T01:35:24.032Z,99293.96
2019-03-24T01:37:52.524Z,99295.64
2019-03-24T01:40:21.006Z,99288.58
2019-03-24T01:42:49.498Z,99295.50
2019-03-24T01:45:18.012Z,99288.92
2019-03-24T01:47:46.491Z,99287.27
2019-03-24T01:50:15.140Z,99297.02
2019-03-24T01:52:43.724Z,99289.81
2019-03-24T01:55:12.410Z,99287.16
2019-03-24T01:57:40.889Z,99291.23
2019-03-24T02:00:10.040Z,99286.41
2019-03-24T02:02:38.532Z,99291.84
2019-03-24T02:05:08.025Z,99293.85
2019-03-24T02:07:36.625Z,99294.15
2019-03-24T02:10:08.147Z,99296.13
2019-03-24T02:12:36.743Z,99299.69
2019-03-24T02:15:07.334Z,99302.85
2019-03-24T02:17:35.885Z,99302.81
2019-03-24T02:20:06.134Z,99301.49
2019-03-24T02:22:34.616Z,99294.39
2019-03-24T02:25:03.200Z,99304.61
2019-03-24T02:27:31.696Z,99291.64
2019-03-24T02:30:00.425Z,99291.17
2019-03-24T02:32:29.246Z,99293.66
2019-03-24T02:34:57.730Z,99296.73
2019-03-24T02:37:26.229Z,99295.32
2019-03-24T02:39:54.811Z,99298.61
2019-03-24T02:42:23.293Z,99305.36
2019-03-24T02:44:51.773Z,99304.95
2019-03-24T02:47:20.272Z,99309.42
2019-03-24T02:49:48.745Z,99311.64
2019-03-24T02:52:17.265Z,99315.46
2019-03-24T02:54:45.758Z,99324.17
2019-03-24T02:57:14.262Z,99325.89
2019-03-24T02:59:42.788Z,99326.00
2019-03-24T03:02:11.341Z,99330.00
2019-03-24T03:04:39.822Z,99324.86
2019-03-24T03:07:08.322Z,99333.72
2019-03-24T03:09:36.822Z,99337.97
2019-03-24T03:12:05.456Z,99334.83
2019-03-24T03:14:33.976Z,99332.94
2019-03-24T03:17:02.456Z,99331.69
2019-03-24T03:19:30.982Z,99337.59
2019-03-24T03:21:59.672Z,99340.03
2019-03-24T03:24:28.374Z,99344.78
2019-03-24T03:26:56.851Z,99339.69
2019-03-24T03:29:25.372Z,99343.11
2019-03-24T03:31:54.085Z,99345.98
2019-03-24T03:34:22.562Z,99343.16
2019-03-24T03:36:51.158Z,99347.64
2019-03-24T03:39:20.745Z,99343.67
2019-03-24T03:41:49.245Z,99348.45
2019-03-24T03:44:17.769Z,99349.25
2019-03-24T03:46:52.674Z,99346.02
2019-03-24T03:49:16.456Z,99347.86
2019-03-24T03:51:44.949Z,99350.55
2019-03-24T03:54:13.421Z,99349.93
2019-03-24T03:56:41.918Z,99347.10
2019-03-24T03:59:10.432Z,99352.42
2019-03-24T04:01:38.946Z,99340.31
2019-03-24T04:04:07.606Z,99347.08
2019-03-24T04:06:36.123Z,99352.59
2019-03-24T04:09:06.043Z,99364.61
2019-03-24T04:11:34.535Z,99358.53
2019-03-24T04:14:03.029Z,99361.82
2019-03-24T04:16:31.531Z,99361.66
2019-03-24T04:19:00.013Z,99363.22
2019-03-24T04:21:28.524Z,99356.02
2019-03-24T04:23:58.581Z,99356.28
2019-03-24T04:26:27.083Z,99360.71
2019-03-24T04:28:55.591Z,99360.66
2019-03-24T04:31:24.156Z,99358.77
2019-03-24T04:33:52.598Z,99362.48
2019-03-24T04:36:21.083Z,99366.70
2019-03-24T04:38:49.572Z,99371.41
2019-03-24T04:41:18.197Z,99378.10
2019-03-24T04:43:46.701Z,99374.23
2019-03-24T04:46:15.181Z,99362.88
2019-03-24T04:48:43.730Z,99364.75
2019-03-24T04:51:12.212Z,99374.81
2019-03-24T04:53:40.696Z,99374.60
2019-03-24T04:56:09.294Z,99375.20
2019-03-24T04:58:37.765Z,99371.76
2019-03-24T05:01:06.333Z,99380.51
2019-03-24T05:03:34.831Z,99394.21
2019-03-24T05:06:03.482Z,99392.14
2019-03-24T05:08:32.248Z,99389.02
2019-03-24T05:11:00.744Z,99388.42
2019-03-24T05:13:29.245Z,99380.98
2019-03-24T05:15:57.726Z,99381.47
2019-03-24T05:18:26.321Z,99381.22
2019-03-24T05:20:54.835Z,99375.19
2019-03-24T05:23:23.324Z,99378.11
2019-03-24T05:25:52.113Z,99376.69
2019-03-24T05:28:20.608Z,99380.54
2019-03-24T05:30:49.122Z,99379.22
2019-03-24T05:33:17.602Z,99382.75
2019-03-24T05:35:46.115Z,99374.64
2019-03-24T05:38:14.596Z,99373.55
2019-03-24T05:40:43.113Z,99372.47
2019-03-24T05:43:11.601Z,99372.34
2019-03-24T05:45:40.098Z,99371.04
2019-03-24T05:48:08.611Z,99373.86
2019-03-24T05:50:37.118Z,99374.91
2019-03-24T05:53:05.700Z,99370.63
2019-03-24T05:55:34.183Z,99373.69
2019-03-24T05:58:02.681Z,99374.38
2019-03-24T06:00:31.168Z,99373.22
2019-03-24T06:02:59.665Z,99361.52
2019-03-24T06:05:28.171Z,99371.48
2019-03-24T06:07:56.660Z,99366.55
2019-03-24T06:10:25.169Z,99371.16
2019-03-24T06:12:54.603Z,99367.79
2019-03-24T06:15:23.130Z,99373.53
2019-03-24T06:17:51.604Z,99372.81
2019-03-24T06:20:20.166Z,99368.72
2019-03-24T06:22:48.641Z,99369.52
2019-03-24T06:25:17.238Z,99358.05
2019-03-24T06:27:45.720Z,99363.84
2019-03-24T06:30:14.702Z,99357.75
2019-03-24T06:32:43.276Z,99355.92
2019-03-24T06:35:11.819Z,99360.89
2019-03-24T06:37:40.323Z,99357.59
2019-03-24T06:40:09.344Z,99358.72
2019-03-24T06:42:37.924Z,99359.28
2019-03-24T06:45:08.662Z,99353.14
2019-03-24T06:47:37.170Z,99351.63
2019-03-24T06:50:07.499Z,99350.16
2019-03-24T06:52:36.148Z,99349.95
2019-03-24T06:55:04.965Z,99350.77
2019-03-24T06:57:33.525Z,99345.55
2019-03-24T07:00:02.000Z,99352.97
2019-03-24T07:02:30.500Z,99351.88
2019-03-24T07:04:59.348Z,99352.67
2019-03-24T07:07:27.852Z,99356.27
2019-03-24T07:09:56.343Z,99349.09
2019-03-24T07:12:24.821Z,99352.30
2019-03-24T07:14:53.334Z,99345.56
2019-03-24T07:17:22.080Z,99347.92
2019-03-24T07:19:50.599Z,99348.80
2019-03-24T07:22:19.466Z,99343.77
2019-03-24T07:24:47.952Z,99341.02
2019-03-24T07:27:16.486Z,99347.02
2019-03-24T07:29:44.959Z,99342.47
2019-03-24T07:32:13.434Z,99343.66
2019-03-24T07:34:41.951Z,99339.25
2019-03-24T07:37:10.468Z,99338.23
2019-03-24T07:39:38.957Z,99348.35
2019-03-24T07:42:07.472Z,99346.32
2019-03-24T07:44:35.958Z,99344.21
2019-03-24T07:47:07.503Z,99334.75
2019-03-24T07:49:36.087Z,99343.86
2019-03-24T07:52:04.638Z,99335.88
2019-03-24T07:54:33.148Z,99330.41
2019-03-24T07:57:01.632Z,99331.98
2019-03-24T07:59:30.119Z,99324.72
2019-03-24T08:01:59.683Z,99318.53
2019-03-24T08:04:28.160Z,99311.92
2019-03-24T08:06:56.716Z,99314.93
2019-03-24T08:09:25.231Z,99315.70
2019-03-24T08:11:53.705Z,99313.63
2019-03-24T08:14:22.223Z,99301.17
2019-03-24T08:16:50.706Z,99311.39
2019-03-24T08:19:19.198Z,99317.69
2019-03-24T08:21:47.684Z,99312.10
2019-03-24T08:24:16.202Z,99299.00
2019-03-24T08:26:44.790Z,99305.20
2019-03-24T08:29:13.297Z,99293.59
2019-03-24T08:31:41.810Z,99289.05
2019-03-24T08:34:10.288Z,99294.64
2019-03-24T08:36:38.853Z,99285.09
2019-03-24T08:39:07.438Z,99275.09
2019-03-24T08:41:36.020Z,99272.70
2019-03-24T08:44:04.635Z,99273.89
2019-03-24T08:46:33.154Z,99267.46
2019-03-24T08:49:01.650Z,99263.80
2019-03-24T08:51:30.124Z,99254.53
2019-03-24T08:53:59.628Z,99245.48
2019-03-24T08:56:28.130Z,99239.47
2019-03-24T08:58:56.625Z,99248.38
2019-03-24T09:01:25.224Z,99249.56
2019-03-24T09:03:53.715Z,99246.33
2019-03-24T09:06:22.206Z,99243.21
2019-03-24T09:08:50.718Z,99237.96
2019-03-24T09:11:19.213Z,99234.67
2019-03-24T09:13:47.726Z,99231.00
2019-03-24T09:16:16.253Z,99230.52
2019-03-24T09:18:52.633Z,99229.92
2019-03-24T09:21:14.960Z,99212.19
2019-03-24T09:23:43.444Z,99223.16
2019-03-24T09:26:11.956Z,99224.98
2019-03-24T09:28:40.439Z,99211.67
2019-03-24T09:31:08.974Z,99219.49
2019-03-24T09:33:37.491Z,99216.70
2019-03-24T09:36:06.045Z,99217.29
2019-03-24T09:38:34.623Z,99215.47
2019-03-24T09:41:03.106Z,99217.23
2019-03-24T09:43:31.629Z,99216.73
2019-03-24T09:46:00.148Z,99209.16
2019-03-24T09:48:28.673Z,99211.08
2019-03-24T09:50:57.227Z,99215.86
2019-03-24T09:53:25.709Z,99206.55
2019-03-24T09:55:54.233Z,99209.25
2019-03-24T09:58:22.718Z,99204.80
2019-03-24T10:00:51.218Z,99203.03
2019-03-24T10:03:19.702Z,99204.12
2019-03-24T10:05:48.261Z,99207.74
2019-03-24T10:08:16.757Z,99195.97
2019-03-24T10:10:45.224Z,99201.66
2019-03-24T10:13:13.713Z,99195.70
2019-03-24T10:15:42.235Z,99197.27
2019-03-24T10:18:10.798Z,99192.90
2019-03-24T10:20:39.287Z,99192.41
2019-03-24T10:23:07.785Z,99193.72
2019-03-24T10:25:36.270Z,99186.68
2019-03-24T10:28:04.787Z,99198.16
2019-03-24T10:30:33.269Z,99198.81
2019-03-24T10:33:01.779Z,99195.76
2019-03-24T10:35:30.269Z,99186.37
2019-03-24T10:37:58.793Z,99183.54
2019-03-24T10:40:28.824Z,99182.64
2019-03-24T10:42:57.695Z,99172.63
2019-03-24T10:45:26.186Z,99157.11
2019-03-24T10:47:56.309Z,99153.44
2019-03-24T10:50:24.825Z,99160.21
2019-03-24T10:52:53.321Z,99150.03
2019-03-24T10:55:21.805Z,99147.58
2019-03-24T10:57:51.332Z,99140.44
2019-03-24T11:00:22.907Z,99145.19
2019-03-24T11:02:51.404Z,99140.44
2019-03-24T11:05:19.889Z,99137.63
2019-03-24T11:07:48.413Z,99133.13
2019-03-24T11:10:16.964Z,99128.20
2019-03-24T11:12:45.478Z,99118.88
2019-03-24T11:15:14.064Z,99109.45
2019-03-24T11:17:42.575Z,99114.44
2019-03-24T11:20:11.339Z,99105.70
2019-03-24T11:22:39.818Z,99107.38
2019-03-24T11:25:09.469Z,99096.09
2019-03-24T11:27:38.248Z,99096.93
2019-03-24T11:30:14.267Z,99085.83
2019-03-24T11:32:42.993Z,99082.89
2019-03-24T11:35:12.646Z,99081.56
2019-03-24T11:37:41.293Z,99078.33
2019-03-24T11:40:11.509Z,99075.38
2019-03-24T11:42:40.100Z,99072.95
2019-03-24T11:45:10.237Z,99079.05
2019-03-24T11:47:38.736Z,99063.93
2019-03-24T11:50:08.461Z,99053.67
2019-03-24T11:52:37.300Z,99046.16
2019-03-24T11:55:10.407Z,99045.20
2019-03-24T11:57:40.597Z,99044.85
2019-03-24T12:00:12.158Z,99040.63
2019-03-24T12:02:40.877Z,99029.64
2019-03-24T12:05:09.929Z,99027.34
2019-03-24T12:07:38.410Z,99021.17
2019-03-24T12:10:09.944Z,99024.74
2019-03-24T12:12:38.461Z,99017.08
2019-03-24T12:15:07.979Z,99010.20
2019-03-24T12:17:36.573Z,99006.27
2019-03-24T12:20:08.277Z,99003.73
2019-03-24T12:22:36.902Z,98995.16
2019-03-24T12:25:06.135Z,98983.98
2019-03-24T12:27:35.293Z,98976.67
2019-03-24T12:30:05.542Z,98978.16
2019-03-24T12:32:34.041Z,98968.95
2019-03-24T12:35:02.556Z,98972.02
2019-03-24T12:37:31.070Z,98969.39
2019-03-24T12:39:59.564Z,98958.16
2019-03-24T12:42:28.149Z,98955.73
2019-03-24T12:44:56.651Z,98945.08
2019-03-24T12:47:25.128Z,98938.20
2019-03-24T12:49:53.683Z,98930.82
2019-03-24T12:52:22.144Z,98930.11
2019-03-24T12:54:50.628Z,98926.45
2019-03-24T12:57:19.124Z,98918.52
2019-03-24T12:59:47.666Z,98915.78
2019-03-24T13:02:16.183Z,98914.77
2019-03-24T13:04:44.677Z,98914.50
2019-03-24T13:07:13.178Z,98911.49
2019-03-24T13:09:41.720Z,98913.41
2019-03-24T13:12:10.243Z,98905.75
2019-03-24T13:14:38.723Z,98896.41
2019-03-24T13:17:07.220Z,98893.88
2019-03-24T13:19:36.266Z,98892.70
2019-03-24T13:22:05.040Z,98893.07
2019-03-24T13:24:33.552Z,98891.39
2019-03-24T13:27:02.119Z,98886.30
2019-03-24T13:29:30.604Z,98887.02
2019-03-24T13:32:00.743Z,98883.38
2019-03-24T13:34:29.226Z,98873.35
2019-03-24T13:36:57.711Z,98867.22
2019-03-24T13:39:26.233Z,98867.88
2019-03-24T13:41:54.803Z,98870.12
2019-03-24T13:44:23.385Z,98857.21
2019-03-24T13:46:51.916Z,98849.34
2019-03-24T13:49:20.405Z,98851.34
2019-03-24T13:51:48.895Z,98855.24
2019-03-24T13:54:17.393Z,98854.06
2019-03-24T13:56:45.897Z,98844.57
2019-03-24T13:59:14.445Z,98840.03
2019-03-24T14:01:43.036Z,98839.92
2019-03-24T14:04:11.522Z,98834.36
2019-03-24T14:06:40.184Z,98829.22
2019-03-24T14:09:10.046Z,98831.70
2019-03-24T14:11:40.646Z,98826.06
2019-03-24T14:14:09.146Z,98824.17
2019-03-24T14:16:37.667Z,98826.16
2019-03-24T14:19:06.225Z,98816.12
2019-03-24T14:21:34.755Z,98806.73
2019-03-24T14:24:03.149Z,98808.67
2019-03-24T14:26:31.655Z,98801.35
2019-03-24T14:29:00.160Z,98803.08
2019-03-24T14:31:28.669Z,98795.25
2019-03-24T14:33:57.155Z,98796.12
2019-03-24T14:36:25.471Z,98796.70
2019-03-24T14:38:54.057Z,98789.29
2019-03-24T14:41:22.542Z,98784.81
2019-03-24T14:43:51.043Z,98784.88
2019-03-24T14:46:19.581Z,98778.38
2019-03-24T14:48:48.097Z,98770.53
2019-03-24T14:51:16.748Z,98772.30
2019-03-24T14:53:45.265Z,98767.89
2019-03-24T14:56:13.749Z,98765.70
2019-03-24T14:58:42.259Z,98759.48
2019-03-24T15:01:10.741Z,98761.20
2019-03-24T15:03:39.259Z,98762.44
2019-03-24T15:06:07.814Z,98761.86
2019-03-24T15:08:36.300Z,98756.64
2019-03-24T15:11:04.904Z,98755.34
2019-03-24T15:13:33.388Z,98746.65
2019-03-24T15:16:01.890Z,98753.20
2019-03-24T15:18:30.413Z,98755.39
2019-03-24T15:21:05.608Z,98749.84
2019-03-24T15:23:30.754Z,98748.27
2019-03-24T15:25:59.256Z,98738.11
2019-03-24T15:28:27.750Z,98738.30
2019-03-24T15:30:56.266Z,98747.18
2019-03-24T15:33:24.752Z,98751.13
2019-03-24T15:35:53.234Z,98742.67
2019-03-24T15:38:21.731Z,98742.75
2019-03-24T15:40:50.230Z,98747.40
2019-03-24T15:43:18.822Z,98744.50
2019-03-24T15:45:47.309Z,98741.59
2019-03-24T15:48:15.823Z,98732.42
2019-03-24T15:50:44.348Z,98728.68
2019-03-24T15:53:12.820Z,98730.11
2019-03-24T15:55:41.341Z,98731.27
2019-03-24T15:58:09.936Z,98723.91
2019-03-24T16:00:47.706Z,98724.29
2019-03-24T16:03:16.553Z,98724.16
2019-03-24T16:05:45.168Z,98719.95
2019-03-24T16:08:13.851Z,98718.66
2019-03-24T16:10:42.406Z,98715.22
2019-03-24T16:13:10.981Z,98707.61
2019-03-24T16:15:39.470Z,98701.79
2019-03-24T16:18:08.025Z,98692.52
2019-03-24T16:20:36.541Z,98689.41
2019-03-24T16:23:05.112Z,98687.83
2019-03-24T16:25:33.621Z,98681.28
2019-03-24T16:28:02.184Z,98678.75
2019-03-24T16:30:30.683Z,98672.14
2019-03-24T16:32:59.255Z,98680.02
2019-03-24T16:35:27.774Z,98677.26
2019-03-24T16:37:56.270Z,98677.70
2019-03-24T16:40:24.857Z,98669.54
2019-03-24T16:42:53.350Z,98665.59
2019-03-24T16:45:21.874Z,98665.43
2019-03-24T16:47:50.706Z,98674.02
2019-03-24T16:50:19.278Z,98649.56
2019-03-24T16:52:47.781Z,98646.77
2019-03-24T16:55:16.372Z,98660.03
2019-03-24T16:57:44.859Z,98652.97
2019-03-24T17:00:14.019Z,98649.30
2019-03-24T17:02:42.509Z,98647.58
2019-03-24T17:05:11.369Z,98653.59
2019-03-24T17:07:39.942Z,98652.37
2019-03-24T17:10:08.878Z,98643.14
2019-03-24T17:12:37.373Z,98634.08
2019-03-24T17:15:09.484Z,98637.84
2019-03-24T17:17:38.039Z,98658.33
2019-03-24T17:20:09.780Z,98659.55
2019-03-24T17:22:40.665Z,98655.50
2019-03-24T17:25:09.607Z,98664.62
2019-03-24T17:27:38.134Z,98660.86
2019-03-24T17:30:14.718Z,98658.74
2019-03-24T17:32:45.170Z,98661.11
2019-03-24T17:35:16.359Z,98657.06
2019-03-24T17:37:53.604Z,98666.73
2019-03-24T17:40:26.788Z,98662.80
2019-03-24T17:43:04.126Z,98655.91
2019-03-24T17:45:40.369Z,98661.95
2019-03-24T17:48:14.459Z,98659.50
2019-03-24T17:50:43.111Z,98656.05
2019-03-24T17:53:19.269Z,98654.77
2019-03-24T17:55:47.840Z,98652.73
2019-03-24T17:58:27.499Z,98654.76
2019-03-24T18:01:06.093Z,98647.34
2019-03-24T18:03:35.577Z,98651.75
2019-03-24T18:06:04.089Z,98648.65
2019-03-24T18:08:32.571Z,98652.00
2019-03-24T18:11:01.406Z,98656.96
2019-03-24T18:13:29.902Z,98658.42
2019-03-24T18:15:58.482Z,98661.17
2019-03-24T18:18:26.974Z,98664.02
2019-03-24T18:20:55.478Z,98658.48
2019-03-24T18:23:24.047Z,98654.14
2019-03-24T18:25:52.540Z,98657.31
2019-03-24T18:28:21.590Z,98652.62
2019-03-24T18:30:50.116Z,98657.43
2019-03-24T18:33:18.685Z,98654.12
2019-03-24T18:35:47.257Z,98648.06
2019-03-24T18:38:15.813Z,98648.81
2019-03-24T18:40:44.415Z,98648.75
2019-03-24T18:43:12.903Z,98645.66
2019-03-24T18:45:41.548Z,98641.91
2019-03-24T18:48:10.066Z,98645.27
2019-03-24T18:50:40.873Z,98648.59
2019-03-24T18:53:09.400Z,98639.22
2019-03-24T18:55:37.884Z,98642.42
2019-03-24T18:58:06.446Z,98636.79
2019-03-24T19:00:35.039Z,98629.52
2019-03-24T19:03:03.531Z,98636.15
2019-03-24T19:05:32.084Z,98638.44
2019-03-24T19:08:00.631Z,98642.42
2019-03-24T19:10:29.121Z,98642.81
2019-03-24T19:12:57.648Z,98643.59
2019-03-24T19:15:26.202Z,98634.67
2019-03-24T19:17:54.697Z,98636.19
2019-03-24T19:20:23.195Z,98633.47
2019-03-24T19:22:53.278Z,98627.31
2019-03-24T19:25:21.778Z,98623.65
2019-03-24T19:27:51.280Z,98618.45
2019-03-24T19:30:22.849Z,98619.33
2019-03-24T19:32:51.480Z,98616.84
2019-03-24T19:35:20.011Z,98616.84
2019-03-24T19:37:49.469Z,98610.28
2019-03-24T19:40:29.110Z,98623.08
2019-03-24T19:42:57.831Z,98624.02
2019-03-24T19:45:27.839Z,98624.77
2019-03-24T19:47:56.682Z,98618.88
2019-03-24T19:50:25.802Z,98617.89
2019-03-24T19:52:54.341Z,98608.88
2019-03-24T19:55:22.828Z,98608.16
2019-03-24T19:57:51.345Z,98603.08
2019-03-24T20:00:19.975Z,98597.23
2019-03-24T20:02:48.474Z,98593.66
2019-03-24T20:05:16.980Z,98590.70
2019-03-24T20:07:48.269Z,98582.50
2019-03-24T20:10:16.078Z,98586.30
2019-03-24T20:12:44.583Z,98577.61
2019-03-24T20:15:14.821Z,98579.52
2019-03-24T20:17:43.389Z,98573.67
2019-03-24T20:20:12.110Z,98563.20
2019-03-24T20:22:40.634Z,98568.52
2019-03-24T20:27:58.428Z,98570.64
2019-03-24T20:30:26.989Z,98568.58
2019-03-24T20:32:55.497Z,98566.84
2019-03-24T20:35:24.014Z,98569.80
2019-03-24T20:37:52.524Z,98561.75
2019-03-24T20:40:21.085Z,98558.39
2019-03-24T20:42:49.577Z,98553.87
2019-03-24T20:45:18.156Z,98554.25
2019-03-24T20:47:46.736Z,98555.84
2019-03-24T20:50:15.761Z,98557.99
2019-03-24T20:52:44.260Z,98557.63
2019-03-24T20:55:13.124Z,98560.98
2019-03-24T20:57:41.681Z,98567.22
2019-03-24T21:00:11.486Z,98554.95
2019-03-24T21:02:39.979Z,98556.59
2019-03-24T21:05:10.945Z,98548.28
2019-03-24T21:07:38.854Z,98535.75
2019-03-24T21:10:07.777Z,98535.39
2019-03-24T21:12:36.568Z,98533.94
2019-03-24T21:15:07.458Z,98534.65
2019-03-24T21:17:36.128Z,98524.27
2019-03-24T21:20:07.070Z,98519.77
2019-03-24T21:22:35.641Z,98518.14
2019-03-24T21:25:05.586Z,98521.03
2019-03-24T21:27:34.077Z,98518.81
2019-03-24T21:30:02.576Z,98515.98
2019-03-24T21:32:31.058Z,98513.41
2019-03-24T21:34:59.577Z,98509.17
2019-03-24T21:37:28.076Z,98505.66
2019-03-24T21:39:56.608Z,98506.30
2019-03-24T21:42:25.095Z,98496.39
2019-03-24T21:44:53.590Z,98493.45
2019-03-24T21:47:22.120Z,98491.91
2019-03-24T21:49:53.330Z,98494.23
2019-03-24T21:52:21.954Z,98494.20
2019-03-24T21:54:50.430Z,98483.81
2019-03-24T21:57:18.932Z,98481.41
2019-03-24T21:59:47.453Z,98476.06
2019-03-24T22:02:15.989Z,98480.34
2019-03-24T22:04:44.453Z,98488.86
2019-03-24T22:07:12.970Z,98488.86
2019-03-24T22:09:41.521Z,98482.37
2019-03-24T22:12:10.002Z,98489.38
2019-03-24T22:14:41.184Z,98486.89
2019-03-24T22:17:09.686Z,98481.42
2019-03-24T22:19:38.764Z,98482.48
2019-03-24T22:22:07.347Z,98490.77
2019-03-24T22:24:35.827Z,98486.89
2019-03-24T22:27:04.360Z,98482.75
2019-03-24T22:29:32.847Z,98485.09
2019-03-24T22:32:01.323Z,98476.37
2019-03-24T22:34:29.915Z,98470.64
2019-03-24T22:36:58.394Z,98472.45
2019-03-24T22:39:26.986Z,98468.37
2019-03-24T22:41:55.460Z,98466.36
2019-03-24T22:44:24.004Z,98464.00
2019-03-24T22:46:52.491Z,98463.63
2019-03-24T22:49:20.976Z,98453.13
2019-03-24T22:51:49.490Z,98451.86
2019-03-24T22:54:18.012Z,98444.73
2019-03-24T22:56:46.596Z,98439.34
2019-03-24T22:59:15.249Z,98440.86
2019-03-24T23:01:43.851Z,98433.00
2019-03-24T23:04:12.329Z,98430.67
2019-03-24T23:06:40.977Z,98431.46
2019-03-24T23:09:10.267Z,98431.34
2019-03-24T23:11:38.780Z,98425.27
2019-03-24T23:14:07.396Z,98419.89
2019-03-24T23:16:36.053Z,98420.45
2019-03-24T23:19:05.179Z,98421.03
2019-03-24T23:21:33.737Z,98418.03
2019-03-24T23:24:02.228Z,98415.09
2019-03-24T23:26:30.736Z,98412.05
2019-03-24T23:28:59.212Z,98409.69
2019-03-24T23:31:27.825Z,98403.69
2019-03-24T23:33:56.306Z,98404.33
2019-03-24T23:36:24.813Z,98387.86
2019-03-24T23:38:53.296Z,98392.87
2019-03-24T23:41:21.783Z,98391.72
2019-03-24T23:43:50.343Z,98394.90
2019-03-24T23:46:18.857Z,98384.96
2019-03-24T23:48:47.354Z,98380.89
2019-03-24T23:51:16.285Z,98376.27
2019-03-24T23:53:44.772Z,98378.73
2019-03-24T23:56:13.291Z,98361.95
2019-03-24T23:58:41.800Z,98370.80
